Aviation Digital Data Service (ADDS)

Output produced by METARs form (1827 UTC 19 April 2019)
found at http://www.aviationweather.gov/metar/data/
 
METAR text: HEBL 191800Z 36010KT CAVOK 25/04 Q1015 NOSIG
Conditions at: HEBL (ABU SIMBEL (RUIN, EG) observed 1800 UTC 19 April 2019
Temperature: 25.0°C (77°F)
Dewpoint: 4.0°C (39°F) [RH = 26%]
Pressure (altimeter): 29.97 inches Hg (1015.0 mb)
Winds: from the N (360 degrees) at 12 MPH (10 knots; 5.1 m/s)
Visibility: 6 or more miles (10+ km)
Ceiling: ceiling and visibility are OK
Clouds: unknown
Weather: no significant weather observed at this time

METAR text: HEBL 191700Z 36011KT CAVOK 29/02 Q1014 NOSIG
Conditions at: HEBL (ABU SIMBEL (RUIN, EG) observed 1700 UTC 19 April 2019
Temperature: 29.0°C (84°F)
Dewpoint: 2.0°C (36°F) [RH = 18%]
Pressure (altimeter): 29.94 inches Hg (1014.0 mb)
Winds: from the N (360 degrees) at 13 MPH (11 knots; 5.7 m/s)
Visibility: 6 or more miles (10+ km)
Ceiling: ceiling and visibility are OK
Clouds: unknown
Weather: no significant weather observed at this time

METAR text: HEBL 191600Z 07005KT CAVOK 29/08 Q1014 NOSIG
Conditions at: HEBL (ABU SIMBEL (RUIN, EG) observed 1600 UTC 19 April 2019
Temperature: 29.0°C (84°F)
Dewpoint: 8.0°C (46°F) [RH = 27%]
Pressure (altimeter): 29.94 inches Hg (1014.0 mb)
Winds: from the ENE (70 degrees) at 6 MPH (5 knots; 2.6 m/s)
Visibility: 6 or more miles (10+ km)
Ceiling: ceiling and visibility are OK
Clouds: unknown
Weather: no significant weather observed at this time

METAR text: HEBL 191500Z 08007KT CAVOK 29/08 Q1013 NOSIG
Conditions at: HEBL (ABU SIMBEL (RUIN, EG) observed 1500 UTC 19 April 2019
Temperature: 29.0°C (84°F)
Dewpoint: 8.0°C (46°F) [RH = 27%]
Pressure (altimeter): 29.91 inches Hg (1013.0 mb)
Winds: from the E (80 degrees) at 8 MPH (7 knots; 3.6 m/s)
Visibility: 6 or more miles (10+ km)
Ceiling: ceiling and visibility are OK
Clouds: unknown
Weather: no significant weather observed at this time

METAR text: HEBL 191400Z 09008KT CAVOK 30/06 Q1014 NOSIG
Conditions at: HEBL (ABU SIMBEL (RUIN, EG) observed 1400 UTC 19 April 2019
Temperature: 30.0°C (86°F)
Dewpoint: 6.0°C (43°F) [RH = 22%]
Pressure (altimeter): 29.94 inches Hg (1014.0 mb)
Winds: from the E (90 degrees) at 9 MPH (8 knots; 4.1 m/s)
Visibility: 6 or more miles (10+ km)
Ceiling: ceiling and visibility are OK
Clouds: unknown
Weather: no significant weather observed at this time

METAR text: HEBL 191300Z 09008KT CAVOK 30/05 Q1014 NOSIG
Conditions at: HEBL (ABU SIMBEL (RUIN, EG) observed 1300 UTC 19 April 2019
Temperature: 30.0°C (86°F)
Dewpoint: 5.0°C (41°F) [RH = 21%]
Pressure (altimeter): 29.94 inches Hg (1014.0 mb)
Winds: from the E (90 degrees) at 9 MPH (8 knots; 4.1 m/s)
Visibility: 6 or more miles (10+ km)
Ceiling: ceiling and visibility are OK
Clouds: unknown
Weather: no significant weather observed at this time

METAR text: HEBL 191200Z 07008KT CAVOK 29/05 Q1015 NOSIG
Conditions at: HEBL (ABU SIMBEL (RUIN, EG) observed 1200 UTC 19 April 2019
Temperature: 29.0°C (84°F)
Dewpoint: 5.0°C (41°F) [RH = 22%]
Pressure (altimeter): 29.97 inches Hg (1015.0 mb)
Winds: from the ENE (70 degrees) at 9 MPH (8 knots; 4.1 m/s)
Visibility: 6 or more miles (10+ km)
Ceiling: ceiling and visibility are OK
Clouds: unknown
Weather: no significant weather observed at this time

METAR text: HEBL 191100Z 08009KT CAVOK 29/05 Q1016 NOSIG
Conditions at: HEBL (ABU SIMBEL (RUIN, EG) observed 1100 UTC 19 April 2019
Temperature: 29.0°C (84°F)
Dewpoint: 5.0°C (41°F) [RH = 22%]
Pressure (altimeter): 30.00 inches Hg (1016.0 mb)
Winds: from the E (80 degrees) at 10 MPH (9 knots; 4.6 m/s)
Visibility: 6 or more miles (10+ km)
Ceiling: ceiling and visibility are OK
Clouds: unknown
Weather: no significant weather observed at this time

METAR text: HEBL 191000Z 07012KT CAVOK 28/06 Q1016 NOSIG
Conditions at: HEBL (ABU SIMBEL (RUIN, EG) observed 1000 UTC 19 April 2019
Temperature: 28.0°C (82°F)
Dewpoint: 6.0°C (43°F) [RH = 25%]
Pressure (altimeter): 30.00 inches Hg (1016.0 mb)
Winds: from the ENE (70 degrees) at 14 MPH (12 knots; 6.2 m/s)
Visibility: 6 or more miles (10+ km)
Ceiling: ceiling and visibility are OK
Clouds: unknown
Weather: no significant weather observed at this time

METAR text: HEBL 190900Z 06010KT CAVOK 27/05 Q1017 NOSIG
Conditions at: HEBL (ABU SIMBEL (RUIN, EG) observed 0900 UTC 19 April 2019
Temperature: 27.0°C (81°F)
Dewpoint: 5.0°C (41°F) [RH = 24%]
Pressure (altimeter): 30.03 inches Hg (1017.0 mb)
Winds: from the ENE (60 degrees) at 12 MPH (10 knots; 5.1 m/s)
Visibility: 6 or more miles (10+ km)
Ceiling: ceiling and visibility are OK
Clouds: unknown
Weather: no significant weather observed at this time

METAR text: HEBL 190800Z 06010KT CAVOK 25/07 Q1017 NOSIG
Conditions at: HEBL (ABU SIMBEL (RUIN, EG) observed 0800 UTC 19 April 2019
Temperature: 25.0°C (77°F)
Dewpoint: 7.0°C (45°F) [RH = 32%]
Pressure (altimeter): 30.03 inches Hg (1017.0 mb)
Winds: from the ENE (60 degrees) at 12 MPH (10 knots; 5.1 m/s)
Visibility: 6 or more miles (10+ km)
Ceiling: ceiling and visibility are OK
Clouds: unknown
Weather: no significant weather observed at this time

METAR text: HEBL 190700Z 06010KT CAVOK 24/07 Q1017 NOSIG
Conditions at: HEBL (ABU SIMBEL (RUIN, EG) observed 0700 UTC 19 April 2019
Temperature: 24.0°C (75°F)
Dewpoint: 7.0°C (45°F) [RH = 34%]
Pressure (altimeter): 30.03 inches Hg (1017.0 mb)
Winds: from the ENE (60 degrees) at 12 MPH (10 knots; 5.1 m/s)
Visibility: 6 or more miles (10+ km)
Ceiling: ceiling and visibility are OK
Clouds: unknown
Weather: no significant weather observed at this time

METAR text: HEBL 190600Z 07016KT CAVOK 23/07 Q1017 NOSIG
Conditions at: HEBL (ABU SIMBEL (RUIN, EG) observed 0600 UTC 19 April 2019
Temperature: 23.0°C (73°F)
Dewpoint: 7.0°C (45°F) [RH = 36%]
Pressure (altimeter): 30.03 inches Hg (1017.0 mb)
Winds: from the ENE (70 degrees) at 18 MPH (16 knots; 8.2 m/s)
Visibility: 6 or more miles (10+ km)
Ceiling: ceiling and visibility are OK
Clouds: unknown
Weather: no significant weather observed at this time

METAR text: HEBL 190500Z 05013KT CAVOK 22/07 Q1017 NOSIG
Conditions at: HEBL (ABU SIMBEL (RUIN, EG) observed 0500 UTC 19 April 2019
Temperature: 22.0°C (72°F)
Dewpoint: 7.0°C (45°F) [RH = 38%]
Pressure (altimeter): 30.03 inches Hg (1017.0 mb)
Winds: from the NE (50 degrees) at 15 MPH (13 knots; 6.7 m/s)
Visibility: 6 or more miles (10+ km)
Ceiling: ceiling and visibility are OK
Clouds: unknown
Weather: no significant weather observed at this time

METAR text: HEBL 190400Z 06010KT CAVOK 22/07 Q1016 NOSIG
Conditions at: HEBL (ABU SIMBEL (RUIN, EG) observed 0400 UTC 19 April 2019
Temperature: 22.0°C (72°F)
Dewpoint: 7.0°C (45°F) [RH = 38%]
Pressure (altimeter): 30.00 inches Hg (1016.0 mb)
Winds: from the ENE (60 degrees) at 12 MPH (10 knots; 5.1 m/s)
Visibility: 6 or more miles (10+ km)
Ceiling: ceiling and visibility are OK
Clouds: unknown
Weather: no significant weather observed at this time

METAR text: HEBL 190300Z 05011KT CAVOK 21/07 Q1015 NOSIG
Conditions at: HEBL (ABU SIMBEL (RUIN, EG) observed 0300 UTC 19 April 2019
Temperature: 21.0°C (70°F)
Dewpoint: 7.0°C (45°F) [RH = 40%]
Pressure (altimeter): 29.97 inches Hg (1015.0 mb)
Winds: from the NE (50 degrees) at 13 MPH (11 knots; 5.7 m/s)
Visibility: 6 or more miles (10+ km)
Ceiling: ceiling and visibility are OK
Clouds: unknown
Weather: no significant weather observed at this time

METAR text: HEBL 190200Z 02009KT CAVOK 20/05 Q1014 NOSIG
Conditions at: HEBL (ABU SIMBEL (RUIN, EG) observed 0200 UTC 19 April 2019
Temperature: 20.0°C (68°F)
Dewpoint: 5.0°C (41°F) [RH = 37%]
Pressure (altimeter): 29.94 inches Hg (1014.0 mb)
Winds: from the NNE (20 degrees) at 10 MPH (9 knots; 4.6 m/s)
Visibility: 6 or more miles (10+ km)
Ceiling: ceiling and visibility are OK
Clouds: unknown
Weather: no significant weather observed at this time

METAR text: HEBL 190100Z 04010KT CAVOK 21/06 Q1015 NOSIG
Conditions at: HEBL (ABU SIMBEL (RUIN, EG) observed 0100 UTC 19 April 2019
Temperature: 21.0°C (70°F)
Dewpoint: 6.0°C (43°F) [RH = 38%]
Pressure (altimeter): 29.97 inches Hg (1015.0 mb)
Winds: from the NE (40 degrees) at 12 MPH (10 knots; 5.1 m/s)
Visibility: 6 or more miles (10+ km)
Ceiling: ceiling and visibility are OK
Clouds: unknown
Weather: no significant weather observed at this time

METAR text: HEBL 190000Z 03011KT CAVOK 22/05 Q1015 NOSIG
Conditions at: HEBL (ABU SIMBEL (RUIN, EG) observed 0000 UTC 19 April 2019
Temperature: 22.0°C (72°F)
Dewpoint: 5.0°C (41°F) [RH = 33%]
Pressure (altimeter): 29.97 inches Hg (1015.0 mb)
Winds: from the NNE (30 degrees) at 13 MPH (11 knots; 5.7 m/s)
Visibility: 6 or more miles (10+ km)
Ceiling: ceiling and visibility are OK
Clouds: unknown
Weather: no significant weather observed at this time

METAR text: HEBL 182300Z 03011KT CAVOK 22/05 Q1015 NOSIG
Conditions at: HEBL (ABU SIMBEL (RUIN, EG) observed 2300 UTC 18 April 2019
Temperature: 22.0°C (72°F)
Dewpoint: 5.0°C (41°F) [RH = 33%]
Pressure (altimeter): 29.97 inches Hg (1015.0 mb)
Winds: from the NNE (30 degrees) at 13 MPH (11 knots; 5.7 m/s)
Visibility: 6 or more miles (10+ km)
Ceiling: ceiling and visibility are OK
Clouds: unknown
Weather: no significant weather observed at this time

METAR text: HEBL 182200Z 03008KT CAVOK 22/06 Q1016 NOSIG
Conditions at: HEBL (ABU SIMBEL (RUIN, EG) observed 2200 UTC 18 April 2019
Temperature: 22.0°C (72°F)
Dewpoint: 6.0°C (43°F) [RH = 35%]
Pressure (altimeter): 30.00 inches Hg (1016.0 mb)
Winds: from the NNE (30 degrees) at 9 MPH (8 knots; 4.1 m/s)
Visibility: 6 or more miles (10+ km)
Ceiling: ceiling and visibility are OK
Clouds: unknown
Weather: no significant weather observed at this time

METAR text: HEBL 182100Z 03008KT CAVOK 23/05 Q1016 NOSIG
Conditions at: HEBL (ABU SIMBEL (RUIN, EG) observed 2100 UTC 18 April 2019
Temperature: 23.0°C (73°F)
Dewpoint: 5.0°C (41°F) [RH = 31%]
Pressure (altimeter): 30.00 inches Hg (1016.0 mb)
Winds: from the NNE (30 degrees) at 9 MPH (8 knots; 4.1 m/s)
Visibility: 6 or more miles (10+ km)
Ceiling: ceiling and visibility are OK
Clouds: unknown
Weather: no significant weather observed at this time

METAR text: HEBL 182000Z 01013KT CAVOK 24/04 Q1016 NOSIG
Conditions at: HEBL (ABU SIMBEL (RUIN, EG) observed 2000 UTC 18 April 2019
Temperature: 24.0°C (75°F)
Dewpoint: 4.0°C (39°F) [RH = 27%]
Pressure (altimeter): 30.00 inches Hg (1016.0 mb)
Winds: from the N (10 degrees) at 15 MPH (13 knots; 6.7 m/s)
Visibility: 6 or more miles (10+ km)
Ceiling: ceiling and visibility are OK
Clouds: unknown
Weather: no significant weather observed at this time

METAR text: HEBL 181800Z 36013KT CAVOK 26/03 Q1015 NOSIG
Conditions at: HEBL (ABU SIMBEL (RUIN, EG) observed 1800 UTC 18 April 2019
Temperature: 26.0°C (79°F)
Dewpoint: 3.0°C (37°F) [RH = 23%]
Pressure (altimeter): 29.97 inches Hg (1015.0 mb)
Winds: from the N (360 degrees) at 15 MPH (13 knots; 6.7 m/s)
Visibility: 6 or more miles (10+ km)
Ceiling: ceiling and visibility are OK
Clouds: unknown
Weather: no significant weather observed at this time

METAR text: HEBL 181700Z 36014KT CAVOK 27/02 Q1014 NOSIG
Conditions at: HEBL (ABU SIMBEL (RUIN, EG) observed 1700 UTC 18 April 2019
Temperature: 27.0°C (81°F)
Dewpoint: 2.0°C (36°F) [RH = 20%]
Pressure (altimeter): 29.94 inches Hg (1014.0 mb)
Winds: from the N (360 degrees) at 16 MPH (14 knots; 7.2 m/s)
Visibility: 6 or more miles (10+ km)
Ceiling: ceiling and visibility are OK
Clouds: unknown
Weather: no significant weather observed at this time

METAR text: HEBL 181600Z 36017KT CAVOK 29/01 Q1014 NOSIG
Conditions at: HEBL (ABU SIMBEL (RUIN, EG) observed 1600 UTC 18 April 2019
Temperature: 29.0°C (84°F)
Dewpoint: 1.0°C (34°F) [RH = 16%]
Pressure (altimeter): 29.94 inches Hg (1014.0 mb)
Winds: from the N (360 degrees) at 20 MPH (17 knots; 8.7 m/s)
Visibility: 6 or more miles (10+ km)
Ceiling: ceiling and visibility are OK
Clouds: unknown
Weather: no significant weather observed at this time

METAR text: HEBL 181500Z 36015KT CAVOK 19/10 Q1013 NOSIG
Conditions at: HEBL (ABU SIMBEL (RUIN, EG) observed 1500 UTC 18 April 2019
Temperature: 19.0°C (66°F)
Dewpoint: 10.0°C (50°F) [RH = 56%]
Pressure (altimeter): 29.91 inches Hg (1013.0 mb)
Winds: from the N (360 degrees) at 17 MPH (15 knots; 7.7 m/s)
Visibility: 6 or more miles (10+ km)
Ceiling: ceiling and visibility are OK
Clouds: unknown
Weather: no significant weather observed at this time

METAR text: HEBL 181400Z 09007KT CAVOK 28/03 Q1013 NOSIG
Conditions at: HEBL (ABU SIMBEL (RUIN, EG) observed 1400 UTC 18 April 2019
Temperature: 28.0°C (82°F)
Dewpoint: 3.0°C (37°F) [RH = 20%]
Pressure (altimeter): 29.91 inches Hg (1013.0 mb)
Winds: from the E (90 degrees) at 8 MPH (7 knots; 3.6 m/s)
Visibility: 6 or more miles (10+ km)
Ceiling: ceiling and visibility are OK
Clouds: unknown
Weather: no significant weather observed at this time

METAR text: HEBL 181300Z 09008KT CAVOK 28/03 Q1014 NOSIG
Conditions at: HEBL (ABU SIMBEL (RUIN, EG) observed 1300 UTC 18 April 2019
Temperature: 28.0°C (82°F)
Dewpoint: 3.0°C (37°F) [RH = 20%]
Pressure (altimeter): 29.94 inches Hg (1014.0 mb)
Winds: from the E (90 degrees) at 9 MPH (8 knots; 4.1 m/s)
Visibility: 6 or more miles (10+ km)
Ceiling: ceiling and visibility are OK
Clouds: unknown
Weather: no significant weather observed at this time

METAR text: HEBL 181200Z 08008KT CAVOK 27/07 Q1015 NOSIG
Conditions at: HEBL (ABU SIMBEL (RUIN, EG) observed 1200 UTC 18 April 2019
Temperature: 27.0°C (81°F)
Dewpoint: 7.0°C (45°F) [RH = 28%]
Pressure (altimeter): 29.97 inches Hg (1015.0 mb)
Winds: from the E (80 degrees) at 9 MPH (8 knots; 4.1 m/s)
Visibility: 6 or more miles (10+ km)
Ceiling: ceiling and visibility are OK
Clouds: unknown
Weather: no significant weather observed at this time

METAR text: HEBL 181100Z 10010KT CAVOK 27/06 Q1016 NOSIG
Conditions at: HEBL (ABU SIMBEL (RUIN, EG) observed 1100 UTC 18 April 2019
Temperature: 27.0°C (81°F)
Dewpoint: 6.0°C (43°F) [RH = 26%]
Pressure (altimeter): 30.00 inches Hg (1016.0 mb)
Winds: from the E (100 degrees) at 12 MPH (10 knots; 5.1 m/s)
Visibility: 6 or more miles (10+ km)
Ceiling: ceiling and visibility are OK
Clouds: unknown
Weather: no significant weather observed at this time

METAR text: HEBL 181000Z 04012KT CAVOK 28/03 Q1016 NOSIG
Conditions at: HEBL (ABU SIMBEL (RUIN, EG) observed 1000 UTC 18 April 2019
Temperature: 28.0°C (82°F)
Dewpoint: 3.0°C (37°F) [RH = 20%]
Pressure (altimeter): 30.00 inches Hg (1016.0 mb)
Winds: from the NE (40 degrees) at 14 MPH (12 knots; 6.2 m/s)
Visibility: 6 or more miles (10+ km)
Ceiling: ceiling and visibility are OK
Clouds: unknown
Weather: no significant weather observed at this time

METAR text: HEBL 180900Z 02010KT CAVOK 27/03 Q1017 NOSIG
Conditions at: HEBL (ABU SIMBEL (RUIN, EG) observed 0900 UTC 18 April 2019
Temperature: 27.0°C (81°F)
Dewpoint: 3.0°C (37°F) [RH = 21%]
Pressure (altimeter): 30.03 inches Hg (1017.0 mb)
Winds: from the NNE (20 degrees) at 12 MPH (10 knots; 5.1 m/s)
Visibility: 6 or more miles (10+ km)
Ceiling: ceiling and visibility are OK
Clouds: unknown
Weather: no significant weather observed at this time

METAR text: HEBL 180800Z 03013KT CAVOK 25/04 Q1018 NOSIG
Conditions at: HEBL (ABU SIMBEL (RUIN, EG) observed 0800 UTC 18 April 2019
Temperature: 25.0°C (77°F)
Dewpoint: 4.0°C (39°F) [RH = 26%]
Pressure (altimeter): 30.06 inches Hg (1018.0 mb)
Winds: from the NNE (30 degrees) at 15 MPH (13 knots; 6.7 m/s)
Visibility: 6 or more miles (10+ km)
Ceiling: ceiling and visibility are OK
Clouds: unknown
Weather: no significant weather observed at this time

METAR text: HEBL 180700Z 03009KT CAVOK 23/04 Q1018 NOSIG
Conditions at: HEBL (ABU SIMBEL (RUIN, EG) observed 0700 UTC 18 April 2019
Temperature: 23.0°C (73°F)
Dewpoint: 4.0°C (39°F) [RH = 29%]
Pressure (altimeter): 30.06 inches Hg (1018.0 mb)
Winds: from the NNE (30 degrees) at 10 MPH (9 knots; 4.6 m/s)
Visibility: 6 or more miles (10+ km)
Ceiling: ceiling and visibility are OK
Clouds: unknown
Weather: no significant weather observed at this time

Forecast for: HEBL (ABU SIMBEL (RUIN, EG)
Text: TAF HEBL 191700Z 1918/2024 02010KT CAVOK
Forecast period: 1800 UTC 19 April 2019 to 0000 UTC 21 April 2019
Forecast type: FROM: standard forecast or significant change
Winds: from the NNE (20 degrees) at 12 MPH (10 knots; 5.1 m/s)
Visibility: 6 or more miles 10+ km)
Ceiling: unknown
Clouds: missing
Weather: NSW  (no significant weather)